Time;durP1;ratioP1;P1;durP2;ratioP2;P2;SDS_P1;SDS_P2;PMS_P1;PMS_P2;Temp;Humidity;BMP_temperature;BMP_pressure;BME280_temperature;BME280_humidity;BME280_pressure;Samples;Min_cycle;Max_cycle;Signal;HPM_P1;HPM_P2
2022/10/23 00:01:35;;;;;;;;;;;7.40;99.90;;;;;;5023028;28;20075;-84
2022/10/23 00:04:02;;;;;;;;;;;7.40;99.90;;;;;;5039500;28;20380;-84
2022/10/23 00:06:28;;;;;;;;;;;7.40;99.90;;;;;;5039334;28;19962;-85
2022/10/23 00:08:54;;;;;;;;;;;7.40;99.90;;;;;;5038213;28;19920;-84
2022/10/23 00:11:21;;;;;;;;;;;7.40;99.90;;;;;;5038752;28;19920;-84
2022/10/23 00:13:47;;;;;;;;;;;7.40;99.90;;;;;;5032846;28;19941;-84
2022/10/23 00:16:13;;;;;;;;;;;7.40;99.90;;;;;;5056414;28;19909;-85
2022/10/23 00:18:39;;;;;;;;;;;7.40;99.90;;;;;;5057132;28;19912;-84
2022/10/23 00:21:05;;;;;;;;;;;7.30;99.90;;;;;;5038287;28;19948;-84
2022/10/23 00:23:31;;;;;;;;;;;7.20;99.90;;;;;;5037931;28;19920;-84
2022/10/23 00:25:56;;;;;;;;;;;7.10;99.90;;;;;;5022434;28;19913;-84
2022/10/23 00:28:22;;;;;;;;;;;7.10;99.90;;;;;;5039571;28;19909;-84
2022/10/23 00:30:47;;;;;;;;;;;7.10;99.90;;;;;;5036902;28;20007;-83
2022/10/23 00:33:13;;;;;;;;;;;7.10;99.90;;;;;;5016412;28;19913;-84
2022/10/23 00:35:39;;;;;;;;;;;7.20;99.90;;;;;;5039405;28;19917;-84
2022/10/23 00:38:05;;;;;;;;;;;7.20;99.90;;;;;;5038353;28;19960;-84
2022/10/23 00:40:31;;;;;;;;;;;7.10;99.90;;;;;;5055359;28;19948;-84
2022/10/23 00:42:56;;;;;;;;;;;7.10;99.90;;;;;;5019322;28;19913;-84
2022/10/23 00:45:26;;;;;;;;;;;7.10;99.90;;;;;;5037100;28;19909;-84
2022/10/23 00:47:53;;;;;;;;;;;7.10;99.90;;;;;;5018962;28;19909;-84
2022/10/23 00:50:20;;;;;;;;;;;7.10;99.90;;;;;;5002539;28;19949;-85
2022/10/23 00:52:47;;;;;;;;;;;7.10;99.90;;;;;;5036583;28;19916;-85
2022/10/23 00:55:14;;;;;;;;;;;7.10;99.90;;;;;;5024641;28;19916;-84
2022/10/23 00:57:41;;;;;;;;;;;7.00;99.90;;;;;;5021342;28;19920;-84
2022/10/23 01:00:06;;;;;;;;;;;7.00;99.90;;;;;;5056704;28;20406;-85
2022/10/23 01:02:32;;;;;;;;;;;7.00;99.90;;;;;;5054482;28;19913;-84
2022/10/23 01:04:57;;;;;;;;;;;7.00;99.90;;;;;;5038456;28;19913;-84
2022/10/23 01:07:30;;;;;;;;;;;6.90;99.90;;;;;;5038481;28;20007;-85
2022/10/23 01:10:09;;;;;;;;;;;6.80;99.90;;;;;;5056753;28;19909;-84
2022/10/23 01:12:34;;;;;;;;;;;6.80;99.90;;;;;;5056057;28;19925;-84
2022/10/23 01:15:05;;;;;;;;;;;6.80;99.90;;;;;;5056165;28;19916;-85
2022/10/23 01:17:36;;;;;;;;;;;6.80;99.90;;;;;;5038189;28;19909;-85
2022/10/23 01:20:21;;;;;;;;;;;6.80;99.90;;;;;;5038101;28;20008;-84
2022/10/23 01:22:57;;;;;;;;;;;6.70;99.90;;;;;;5056057;28;19909;-84
2022/10/23 01:25:52;;;;;;;;;;;6.70;99.90;;;;;;5037987;28;19909;-84
2022/10/23 01:28:21;;;;;;;;;;;6.70;99.90;;;;;;5037712;28;20372;-84
2022/10/23 01:30:47;;;;;;;;;;;6.70;99.90;;;;;;5056218;28;19915;-84
2022/10/23 01:33:15;;;;;;;;;;;6.60;99.90;;;;;;5037925;28;20360;-84
2022/10/23 01:35:44;;;;;;;;;;;6.60;99.90;;;;;;5055706;28;19913;-85
2022/10/23 01:38:19;;;;;;;;;;;6.60;99.90;;;;;;5055718;28;19942;-84
2022/10/23 01:40:48;;;;;;;;;;;6.60;99.90;;;;;;5037523;28;19956;-84
2022/10/23 01:43:19;;;;;;;;;;;6.70;99.90;;;;;;5036513;28;20285;-84
2022/10/23 01:45:55;;;;;;;;;;;6.60;99.90;;;;;;5037403;28;19913;-84
2022/10/23 01:48:23;;;;;;;;;;;6.70;99.90;;;;;;5046208;28;19931;-84
2022/10/23 01:50:49;;;;;;;;;;;6.70;99.90;;;;;;5055543;28;19909;-84
2022/10/23 01:53:16;;;;;;;;;;;6.70;99.90;;;;;;5037571;28;19939;-84
2022/10/23 01:55:42;;;;;;;;;;;6.70;99.90;;;;;;5021015;28;19912;-85
2022/10/23 01:58:08;;;;;;;;;;;6.70;99.90;;;;;;5055263;28;20356;-84
2022/10/23 02:00:38;;;;;;;;;;;6.70;99.90;;;;;;5022388;28;19917;-84
2022/10/23 02:03:05;;;;;;;;;;;6.60;99.90;;;;;;5075300;28;19931;-84
2022/10/23 02:05:31;;;;;;;;;;;6.60;99.90;;;;;;5075434;28;19915;-84
2022/10/23 02:07:57;;;;;;;;;;;6.50;99.90;;;;;;5040589;28;19999;-84
2022/10/23 02:10:25;;;;;;;;;;;6.50;99.90;;;;;;5056534;28;19958;-84
2022/10/23 02:12:56;;;;;;;;;;;6.50;99.90;;;;;;5054720;28;19913;-84
2022/10/23 02:15:31;;;;;;;;;;;6.50;99.90;;;;;;5037075;28;19986;-84
2022/10/23 02:17:57;;;;;;;;;;;6.50;99.90;;;;;;5054907;28;19909;-84
2022/10/23 02:20:27;;;;;;;;;;;6.50;99.90;;;;;;5036849;28;19913;-85
2022/10/23 02:22:59;;;;;;;;;;;6.50;99.90;;;;;;5037094;28;19916;-85
2022/10/23 02:25:29;;;;;;;;;;;6.50;99.90;;;;;;5054858;28;19912;-85
2022/10/23 02:27:57;;;;;;;;;;;6.50;99.90;;;;;;5054736;28;20353;-84
2022/10/23 02:30:23;;;;;;;;;;;6.50;99.90;;;;;;5036919;28;19908;-85
2022/10/23 02:32:53;;;;;;;;;;;6.50;99.90;;;;;;5040144;28;19913;-85
2022/10/23 02:35:20;;;;;;;;;;;6.50;99.90;;;;;;5074583;28;20261;-84
2022/10/23 02:37:52;;;;;;;;;;;6.50;99.90;;;;;;5056420;28;20299;-84
2022/10/23 02:40:18;;;;;;;;;;;6.50;99.90;;;;;;5074690;28;19919;-85
2022/10/23 02:42:57;;;;;;;;;;;6.40;99.90;;;;;;5016813;28;19956;-84
2022/10/23 02:45:34;;;;;;;;;;;6.40;99.90;;;;;;5033223;28;19941;-85
2022/10/23 02:48:11;;;;;;;;;;;6.40;99.90;;;;;;5033120;28;20293;-85
2022/10/23 02:50:42;;;;;;;;;;;6.30;99.90;;;;;;5033404;28;20250;-84
2022/10/23 02:53:16;;;;;;;;;;;6.30;99.90;;;;;;5033122;28;20292;-85
2022/10/23 02:55:42;;;;;;;;;;;6.20;99.90;;;;;;5034448;28;20356;-84
2022/10/23 02:58:08;;;;;;;;;;;6.20;99.90;;;;;;5035988;28;19909;-84
2022/10/23 03:00:36;;;;;;;;;;;6.20;99.90;;;;;;5035966;28;19971;-84
2022/10/23 03:03:08;;;;;;;;;;;6.20;99.90;;;;;;5035895;28;19909;-84
2022/10/23 03:05:35;;;;;;;;;;;6.10;99.90;;;;;;5036191;28;20003;-84
2022/10/23 03:08:04;;;;;;;;;;;6.20;99.90;;;;;;5036050;28;19962;-84
2022/10/23 03:10:30;;;;;;;;;;;6.20;99.90;;;;;;5035925;28;19948;-84
2022/10/23 03:12:56;;;;;;;;;;;6.20;99.90;;;;;;5035973;28;19916;-84
2022/10/23 03:15:21;;;;;;;;;;;6.10;99.90;;;;;;5019612;28;19913;-84
2022/10/23 03:17:47;;;;;;;;;;;6.10;99.90;;;;;;5035965;28;19920;-84
2022/10/23 03:20:12;;;;;;;;;;;6.10;99.90;;;;;;5019421;28;20005;-84
2022/10/23 03:22:38;;;;;;;;;;;6.10;99.90;;;;;;5019490;28;19913;-84
2022/10/23 03:25:04;;;;;;;;;;;6.00;99.90;;;;;;5035266;28;19909;-84
2022/10/23 03:27:30;;;;;;;;;;;6.00;99.90;;;;;;5036177;28;20427;-84
2022/10/23 03:29:55;;;;;;;;;;;5.90;99.90;;;;;;5019249;28;20360;-84
2022/10/23 03:32:21;;;;;;;;;;;5.80;99.90;;;;;;5019451;28;20285;-84
2022/10/23 03:34:46;;;;;;;;;;;5.70;99.90;;;;;;5053677;28;20285;-84
2022/10/23 03:37:12;;;;;;;;;;;5.70;99.90;;;;;;5054217;28;20398;-84
2022/10/23 03:39:37;;;;;;;;;;;5.60;99.90;;;;;;5053640;28;20403;-84
2022/10/23 03:42:03;;;;;;;;;;;5.50;99.90;;;;;;5035516;28;20007;-84
2022/10/23 03:44:30;;;;;;;;;;;5.60;99.90;;;;;;5035828;28;19963;-84
2022/10/23 03:46:56;;;;;;;;;;;5.60;99.90;;;;;;5036480;28;19916;-84
2022/10/23 03:49:21;;;;;;;;;;;5.60;99.90;;;;;;5035598;28;20447;-83
2022/10/23 03:51:51;;;;;;;;;;;5.60;99.90;;;;;;5035549;28;20280;-84
2022/10/23 03:54:24;;;;;;;;;;;5.50;99.90;;;;;;5036394;28;20304;-84
2022/10/23 03:56:49;;;;;;;;;;;5.60;99.90;;;;;;5035583;28;19935;-83
2022/10/23 03:59:15;;;;;;;;;;;5.50;99.90;;;;;;5035622;28;19920;-84
2022/10/23 04:01:41;;;;;;;;;;;5.60;99.90;;;;;;5064330;28;19920;-84
2022/10/23 04:04:06;;;;;;;;;;;5.60;99.90;;;;;;5055340;28;20391;-83
2022/10/23 04:06:32;;;;;;;;;;;5.60;99.90;;;;;;5055409;28;19912;-84
2022/10/23 04:08:58;;;;;;;;;;;5.60;99.90;;;;;;5049355;28;19917;-83
2022/10/23 04:11:23;;;;;;;;;;;5.60;99.90;;;;;;5016600;28;20384;-83
2022/10/23 04:13:49;;;;;;;;;;;5.60;99.90;;;;;;5034522;28;19913;-83
2022/10/23 04:16:14;;;;;;;;;;;5.60;99.90;;;;;;5018745;28;19923;-83
2022/10/23 04:18:40;;;;;;;;;;;5.60;99.90;;;;;;5053053;28;20011;-84
2022/10/23 04:21:06;;;;;;;;;;;5.60;99.90;;;;;;5034477;28;19978;-84
2022/10/23 04:23:32;;;;;;;;;;;5.50;99.90;;;;;;5017889;28;20377;-84
2022/10/23 04:25:57;;;;;;;;;;;5.50;99.90;;;;;;5035205;28;19947;-84
2022/10/23 04:28:23;;;;;;;;;;;5.40;99.90;;;;;;5034107;28;19920;-84
2022/10/23 04:30:49;;;;;;;;;;;5.40;99.90;;;;;;5034971;28;19962;-83
2022/10/23 04:33:14;;;;;;;;;;;5.40;99.90;;;;;;5016894;28;19916;-83
2022/10/23 04:35:40;;;;;;;;;;;5.40;99.90;;;;;;5017907;28;20007;-84
2022/10/23 04:38:05;;;;;;;;;;;5.40;99.90;;;;;;5054613;28;19916;-83
2022/10/23 04:40:31;;;;;;;;;;;5.50;99.90;;;;;;5037427;28;19967;-83
2022/10/23 04:42:56;;;;;;;;;;;5.50;99.90;;;;;;5021315;28;19947;-84
2022/10/23 04:45:22;;;;;;;;;;;5.50;99.90;;;;;;5021961;28;19913;-84
2022/10/23 04:47:47;;;;;;;;;;;5.50;99.90;;;;;;5038189;28;19913;-83
2022/10/23 04:50:14;;;;;;;;;;;5.50;99.90;;;;;;5021306;28;19917;-84
2022/10/23 04:52:39;;;;;;;;;;;5.50;99.90;;;;;;5037955;28;19909;-83
2022/10/23 04:55:05;;;;;;;;;;;5.50;99.90;;;;;;5056021;28;19917;-83
2022/10/23 04:57:31;;;;;;;;;;;5.40;99.90;;;;;;5037563;28;20012;-82
2022/10/23 04:59:56;;;;;;;;;;;5.50;99.90;;;;;;5056269;28;19972;-83
2022/10/23 05:02:23;;;;;;;;;;;5.50;99.90;;;;;;5038634;28;19924;-83
2022/10/23 05:04:48;;;;;;;;;;;5.50;99.90;;;;;;5022059;28;19959;-82
2022/10/23 05:07:14;;;;;;;;;;;5.50;99.90;;;;;;5037906;28;20323;-82
2022/10/23 05:09:39;;;;;;;;;;;5.50;99.90;;;;;;5056162;28;19955;-83
2022/10/23 05:12:05;;;;;;;;;;;5.40;99.90;;;;;;5055954;28;20008;-83
2022/10/23 05:14:31;;;;;;;;;;;5.30;99.90;;;;;;5056312;28;19913;-80
2022/10/23 05:16:59;;;;;;;;;;;5.30;99.90;;;;;;5056081;28;19913;-81
2022/10/23 05:19:28;;;;;;;;;;;5.30;99.90;;;;;;5038184;28;19908;-81
2022/10/23 05:21:55;;;;;;;;;;;5.40;99.90;;;;;;5056015;28;19917;-81
2022/10/23 05:24:21;;;;;;;;;;;5.40;99.90;;;;;;5056016;28;19912;-81
2022/10/23 05:26:46;;;;;;;;;;;5.40;99.90;;;;;;5055672;28;19921;-81
2022/10/23 05:29:12;;;;;;;;;;;5.40;99.90;;;;;;5038561;28;19975;-81
2022/10/23 05:31:38;;;;;;;;;;;5.40;99.90;;;;;;5066524;28;19920;-81
2022/10/23 05:34:04;;;;;;;;;;;5.40;99.90;;;;;;5069623;28;19912;-81
2022/10/23 05:36:29;;;;;;;;;;;5.40;99.90;;;;;;5036525;28;20266;-81
2022/10/23 05:38:55;;;;;;;;;;;5.40;99.90;;;;;;5054864;28;19967;-81
2022/10/23 05:41:21;;;;;;;;;;;5.30;99.90;;;;;;5055373;28;19967;-84
2022/10/23 05:43:46;;;;;;;;;;;5.20;99.90;;;;;;5055028;28;19920;-83
2022/10/23 05:46:12;;;;;;;;;;;5.20;99.90;;;;;;5054059;28;19919;-83
2022/10/23 05:48:37;;;;;;;;;;;5.20;99.90;;;;;;5053115;28;20423;-83
2022/10/23 05:51:04;;;;;;;;;;;5.20;99.90;;;;;;5055699;28;19909;-83
2022/10/23 05:53:29;;;;;;;;;;;5.20;99.90;;;;;;5054304;28;19959;-83
2022/10/23 05:55:55;;;;;;;;;;;5.20;99.90;;;;;;5055938;28;19912;-83
2022/10/23 05:58:22;;;;;;;;;;;5.10;99.90;;;;;;5055540;28;19959;-83
2022/10/23 06:00:47;;;;;;;;;;;5.20;99.90;;;;;;5039011;28;19917;-82
2022/10/23 06:03:13;;;;;;;;;;;5.20;99.90;;;;;;5056105;28;19920;-83
2022/10/23 06:05:38;;;;;;;;;;;5.20;99.90;;;;;;5055065;28;19939;-82
2022/10/23 06:08:04;;;;;;;;;;;5.20;99.90;;;;;;5054185;28;19916;-83
2022/10/23 06:10:30;;;;;;;;;;;5.20;99.90;;;;;;5055463;28;19924;-83
2022/10/23 06:12:56;;;;;;;;;;;5.20;99.90;;;;;;5037153;28;20395;-83
2022/10/23 06:15:21;;;;;;;;;;;5.20;99.90;;;;;;5055409;28;19913;-83
2022/10/23 06:17:47;;;;;;;;;;;5.30;99.90;;;;;;5055026;28;19912;-83
2022/10/23 06:20:12;;;;;;;;;;;5.30;99.90;;;;;;5053151;28;19963;-82
2022/10/23 06:22:38;;;;;;;;;;;5.30;99.90;;;;;;5035845;28;19913;-82
2022/10/23 06:25:04;;;;;;;;;;;5.30;99.90;;;;;;5054891;28;19913;-82
2022/10/23 06:27:29;;;;;;;;;;;5.30;99.90;;;;;;5054763;28;19988;-82
2022/10/23 06:29:55;;;;;;;;;;;5.20;99.90;;;;;;5035707;28;19917;-83
2022/10/23 06:32:20;;;;;;;;;;;5.30;99.90;;;;;;5052489;28;19948;-83
2022/10/23 06:34:46;;;;;;;;;;;5.30;99.90;;;;;;5054792;28;19920;-83
2022/10/23 06:37:11;;;;;;;;;;;5.30;99.90;;;;;;5037462;28;19966;-83
2022/10/23 06:39:39;;;;;;;;;;;5.30;99.90;;;;;;5037293;28;19916;-83
2022/10/23 06:42:05;;;;;;;;;;;5.40;99.90;;;;;;5054812;28;20308;-83
2022/10/23 06:44:30;;;;;;;;;;;5.40;99.90;;;;;;5055350;28;19920;-83
2022/10/23 06:46:56;;;;;;;;;;;5.40;99.90;;;;;;5037011;28;19935;-83
2022/10/23 06:49:21;;;;;;;;;;;5.50;99.90;;;;;;5020111;28;19936;-82
2022/10/23 06:51:47;;;;;;;;;;;5.50;99.90;;;;;;5054764;28;20310;-82
2022/10/23 06:54:12;;;;;;;;;;;5.50;99.90;;;;;;5054741;28;19915;-82
2022/10/23 06:56:38;;;;;;;;;;;5.60;99.90;;;;;;5036824;28;20287;-82
2022/10/23 06:59:06;;;;;;;;;;;5.70;99.90;;;;;;5054447;28;19962;-82
2022/10/23 07:01:32;;;;;;;;;;;5.70;99.90;;;;;;5037584;28;19924;-83
2022/10/23 07:03:57;;;;;;;;;;;5.90;99.90;;;;;;5054261;28;19909;-83
2022/10/23 07:06:23;;;;;;;;;;;5.90;99.90;;;;;;5053211;28;19939;-83
2022/10/23 07:08:48;;;;;;;;;;;6.00;99.90;;;;;;5036379;28;19966;-83
2022/10/23 07:11:14;;;;;;;;;;;6.10;99.90;;;;;;5053936;28;20004;-83
2022/10/23 07:13:39;;;;;;;;;;;6.10;99.90;;;;;;5053432;28;20353;-83
2022/10/23 07:16:18;;;;;;;;;;;6.20;99.90;;;;;;5052119;28;20039;-83
2022/10/23 07:18:45;;;;;;;;;;;6.30;99.90;;;;;;5053160;28;19909;-83
2022/10/23 07:21:10;;;;;;;;;;;6.30;99.90;;;;;;5053911;28;19913;-82
2022/10/23 07:23:36;;;;;;;;;;;6.40;99.90;;;;;;5053639;28;19920;-83
2022/10/23 07:26:05;;;;;;;;;;;6.40;99.90;;;;;;5034977;28;19916;-83
2022/10/23 07:28:30;;;;;;;;;;;6.50;99.90;;;;;;5052917;28;19912;-82
2022/10/23 07:30:56;;;;;;;;;;;6.50;99.90;;;;;;5041322;28;19915;-82
2022/10/23 07:33:22;;;;;;;;;;;6.60;99.90;;;;;;5053889;28;19932;-82
2022/10/23 07:35:48;;;;;;;;;;;6.70;99.90;;;;;;5036109;28;19913;-82
2022/10/23 07:38:14;;;;;;;;;;;6.80;99.90;;;;;;5054353;28;19913;-82
2022/10/23 07:40:40;;;;;;;;;;;6.80;99.90;;;;;;5053769;28;19919;-82
2022/10/23 07:43:05;;;;;;;;;;;6.90;99.90;;;;;;5036473;28;19963;-83
2022/10/23 07:45:31;;;;;;;;;;;7.00;99.90;;;;;;5053997;28;19920;-82
2022/10/23 07:47:56;;;;;;;;;;;7.10;99.90;;;;;;5054342;28;19920;-83
2022/10/23 07:50:22;;;;;;;;;;;7.20;99.90;;;;;;5035875;28;19920;-83
2022/10/23 07:52:47;;;;;;;;;;;7.30;99.90;;;;;;5035790;28;19919;-83
2022/10/23 07:55:13;;;;;;;;;;;7.30;99.90;;;;;;5035859;28;19913;-83
2022/10/23 07:57:38;;;;;;;;;;;7.40;99.90;;;;;;5035664;28;19908;-83
2022/10/23 08:00:05;;;;;;;;;;;7.50;99.90;;;;;;5036219;28;19919;-83
2022/10/23 08:02:30;;;;;;;;;;;7.60;99.90;;;;;;5053545;28;19917;-83
2022/10/23 08:04:56;;;;;;;;;;;7.70;99.90;;;;;;5051624;28;19916;-82
2022/10/23 08:07:21;;;;;;;;;;;7.80;99.90;;;;;;5052017;28;20289;-82
2022/10/23 08:09:47;;;;;;;;;;;7.90;99.90;;;;;;5052880;28;20364;-82
2022/10/23 08:12:12;;;;;;;;;;;8.00;99.90;;;;;;5036451;28;19921;-82
2022/10/23 08:14:38;;;;;;;;;;;8.10;99.90;;;;;;5056855;28;19913;-82
2022/10/23 08:17:04;;;;;;;;;;;8.20;99.90;;;;;;5056279;28;19917;-84
2022/10/23 08:19:29;;;;;;;;;;;8.20;99.90;;;;;;5039227;28;20384;-83
2022/10/23 08:21:56;;;;;;;;;;;8.30;99.90;;;;;;5038395;28;19921;-82
2022/10/23 08:24:21;;;;;;;;;;;8.40;99.90;;;;;;5057167;28;19917;-84
2022/10/23 08:26:48;;;;;;;;;;;8.50;99.90;;;;;;5056517;28;19913;-84
2022/10/23 08:29:13;;;;;;;;;;;8.60;99.90;;;;;;5055744;28;19958;-84
2022/10/23 08:31:39;;;;;;;;;;;8.70;99.90;;;;;;5037395;28;19971;-84
2022/10/23 08:34:04;;;;;;;;;;;8.80;99.90;;;;;;5039058;28;19917;-83
2022/10/23 08:36:30;;;;;;;;;;;8.80;99.90;;;;;;5055147;28;20300;-84
2022/10/23 08:38:56;;;;;;;;;;;8.90;99.90;;;;;;5038363;28;19939;-84
2022/10/23 08:41:31;;;;;;;;;;;9.00;99.90;;;;;;5038585;28;20019;-84
2022/10/23 08:44:00;;;;;;;;;;;9.00;99.90;;;;;;5037607;28;19909;-84
2022/10/23 08:46:28;;;;;;;;;;;9.10;99.90;;;;;;5038686;28;19935;-84
2022/10/23 08:49:00;;;;;;;;;;;9.20;99.90;;;;;;5057434;28;20345;-84
2022/10/23 08:51:35;;;;;;;;;;;9.20;99.90;;;;;;5038603;28;19919;-84
2022/10/23 08:54:09;;;;;;;;;;;9.30;99.90;;;;;;5056763;28;19966;-84
2022/10/23 08:56:38;;;;;;;;;;;9.40;99.90;;;;;;5056426;28;20011;-84
2022/10/23 08:59:18;;;;;;;;;;;9.50;99.90;;;;;;5038433;28;19943;-84
2022/10/23 09:02:03;;;;;;;;;;;9.60;99.90;;;;;;5038629;28;20337;-84
2022/10/23 09:04:29;;;;;;;;;;;9.80;99.90;;;;;;5038326;28;19931;-81
2022/10/23 09:07:08;;;;;;;;;;;9.90;99.90;;;;;;5038917;28;20379;-84
2022/10/23 09:09:37;;;;;;;;;;;10.00;99.90;;;;;;5038752;28;20323;-84
2022/10/23 09:12:08;;;;;;;;;;;10.10;99.90;;;;;;5057850;28;19939;-85
2022/10/23 09:14:52;;;;;;;;;;;10.20;99.90;;;;;;5040331;28;19984;-85
2022/10/23 09:17:22;;;;;;;;;;;10.30;99.90;;;;;;5038268;28;19913;-84
2022/10/23 09:19:49;;;;;;;;;;;10.40;99.90;;;;;;5055965;28;19916;-85
2022/10/23 09:22:14;;;;;;;;;;;10.60;99.90;;;;;;5056499;28;20307;-85
2022/10/23 09:24:43;;;;;;;;;;;10.70;99.90;;;;;;5037389;28;20012;-84
2022/10/23 09:27:13;;;;;;;;;;;10.80;99.90;;;;;;5056485;28;20317;-85
2022/10/23 09:29:45;;;;;;;;;;;10.90;99.90;;;;;;5055799;28;19932;-85
2022/10/23 09:32:11;;;;;;;;;;;11.00;99.90;;;;;;5055874;28;20372;-85
2022/10/23 09:34:36;;;;;;;;;;;11.10;99.90;;;;;;5036322;28;19913;-83
2022/10/23 09:37:16;;;;;;;;;;;11.20;99.90;;;;;;5027941;28;19913;-84
2022/10/23 09:39:41;;;;;;;;;;;11.20;99.90;;;;;;5054498;28;19909;-85
2022/10/23 09:42:27;;;;;;;;;;;11.30;99.90;;;;;;5019804;28;19917;-85
2022/10/23 09:44:53;;;;;;;;;;;11.30;99.90;;;;;;5054673;28;19915;-85
2022/10/23 09:47:21;;;;;;;;;;;11.40;99.90;;;;;;5019991;28;20031;-85
2022/10/23 09:49:48;;;;;;;;;;;11.50;99.90;;;;;;5035201;28;19916;-85
2022/10/23 09:52:15;;;;;;;;;;;11.50;99.90;;;;;;5056435;28;19909;-85
2022/10/23 09:54:45;;;;;;;;;;;11.50;99.90;;;;;;5055833;28;19909;-85
2022/10/23 09:57:13;;;;;;;;;;;11.60;99.90;;;;;;5055701;28;19909;-85
2022/10/23 09:59:39;;;;;;;;;;;11.70;99.90;;;;;;5054485;28;20319;-85
2022/10/23 10:02:18;;;;;;;;;;;11.80;99.90;;;;;;5034361;28;19941;-85
2022/10/23 10:04:43;;;;;;;;;;;11.90;99.90;;;;;;5055733;28;20483;-85
2022/10/23 10:07:28;;;;;;;;;;;11.90;99.90;;;;;;5054355;28;19995;-85
2022/10/23 10:09:54;;;;;;;;;;;12.00;99.90;;;;;;5055222;28;19909;-85
2022/10/23 10:12:26;;;;;;;;;;;12.10;99.90;;;;;;5035683;28;19920;-85
2022/10/23 10:14:58;;;;;;;;;;;12.20;99.90;;;;;;5036631;28;19913;-84
2022/10/23 10:17:23;;;;;;;;;;;12.30;99.90;;;;;;5054559;28;19940;-85
2022/10/23 10:19:55;;;;;;;;;;;12.40;99.90;;;;;;5037332;28;19956;-85
2022/10/23 10:22:20;;;;;;;;;;;12.50;99.90;;;;;;5052920;28;19921;-85
2022/10/23 10:25:01;;;;;;;;;;;12.50;99.90;;;;;;5055157;28;19987;-84
2022/10/23 10:27:42;;;;;;;;;;;12.70;99.90;;;;;;5054793;28;19995;-84
2022/10/23 10:30:09;;;;;;;;;;;12.70;99.90;;;;;;5053535;28;19909;-84
2022/10/23 10:32:41;;;;;;;;;;;12.90;99.90;;;;;;5034568;28;19913;-84
2022/10/23 10:35:15;;;;;;;;;;;13.00;99.90;;;;;;5054065;28;19958;-83
2022/10/23 10:37:48;;;;;;;;;;;13.10;99.90;;;;;;5053676;28;19930;-83
2022/10/23 10:40:23;;;;;;;;;;;13.20;99.90;;;;;;5052851;28;19984;-83
2022/10/23 10:43:11;;;;;;;;;;;13.30;99.90;;;;;;5035733;28;20038;-84
2022/10/23 10:45:38;;;;;;;;;;;13.40;99.90;;;;;;5056908;28;20317;-83
2022/10/23 10:48:03;;;;;;;;;;;13.50;99.90;;;;;;5054890;28;19909;-83
2022/10/23 10:50:47;;;;;;;;;;;13.60;99.90;;;;;;5043345;28;20284;-84
2022/10/23 10:53:23;;;;;;;;;;;13.70;99.90;;;;;;5047626;28;19909;-84
2022/10/23 10:55:50;;;;;;;;;;;13.80;99.90;;;;;;5070134;28;19920;-84
2022/10/23 10:58:16;;;;;;;;;;;13.90;99.90;;;;;;5073436;28;19912;-83
2022/10/23 11:00:42;;;;;;;;;;;14.00;99.90;;;;;;5073744;28;19921;-85
2022/10/23 11:03:14;;;;;;;;;;;14.00;99.90;;;;;;5034592;28;20300;-85
2022/10/23 11:05:41;;;;;;;;;;;14.10;99.90;;;;;;5071618;28;20006;-84
2022/10/23 11:08:26;;;;;;;;;;;14.10;99.90;;;;;;5074035;28;20411;-85
2022/10/23 11:11:00;;;;;;;;;;;14.10;99.90;;;;;;5055101;28;19923;-85
2022/10/23 11:13:27;;;;;;;;;;;14.10;99.90;;;;;;5053483;28;19916;-85
2022/10/23 11:15:55;;;;;;;;;;;14.20;99.90;;;;;;5074299;28;19995;-85
2022/10/23 11:18:24;;;;;;;;;;;14.20;99.90;;;;;;5039837;28;19924;-83
2022/10/23 11:20:55;;;;;;;;;;;14.30;99.90;;;;;;5035606;28;19920;-83
2022/10/23 11:23:31;;;;;;;;;;;14.40;99.90;;;;;;5035924;28;20310;-84
2022/10/23 11:26:16;;;;;;;;;;;14.40;99.90;;;;;;5034523;28;19913;-83
2022/10/23 11:28:47;;;;;;;;;;;14.50;99.90;;;;;;5057648;28;20015;-83
2022/10/23 11:31:31;;;;;;;;;;;14.60;99.90;;;;;;5063769;28;19913;-84
2022/10/23 11:34:04;;;;;;;;;;;14.70;99.90;;;;;;5029380;28;20384;-84
2022/10/23 11:36:47;;;;;;;;;;;14.80;99.90;;;;;;5055162;28;19920;-83
2022/10/23 11:39:24;;;;;;;;;;;14.90;99.90;;;;;;5056485;28;19909;-83
2022/10/23 11:41:54;;;;;;;;;;;14.90;99.90;;;;;;5048210;28;19931;-83
2022/10/23 11:44:35;;;;;;;;;;;15.00;99.90;;;;;;5048751;28;20293;-83
2022/10/23 11:47:05;;;;;;;;;;;15.10;99.90;;;;;;5049660;28;19909;-83
2022/10/23 11:49:31;;;;;;;;;;;15.20;99.90;;;;;;5050286;28;20372;-83
2022/10/23 11:52:00;;;;;;;;;;;15.20;99.90;;;;;;5051489;28;19960;-83
2022/10/23 11:54:26;;;;;;;;;;;15.20;99.90;;;;;;5028311;28;19921;-84
2022/10/23 11:57:12;;;;;;;;;;;15.20;99.90;;;;;;5053471;28;19996;-83
2022/10/23 11:59:43;;;;;;;;;;;15.40;99.90;;;;;;5050697;28;19916;-84
2022/10/23 12:02:30;;;;;;;;;;;15.50;99.90;;;;;;5033380;28;20280;-83
2022/10/23 12:04:57;;;;;;;;;;;15.60;99.90;;;;;;5052207;28;19916;-84
2022/10/23 12:07:25;;;;;;;;;;;15.80;99.90;;;;;;5048357;28;19931;-84
2022/10/23 12:09:53;;;;;;;;;;;15.90;99.90;;;;;;5046121;28;19917;-84
2022/10/23 12:12:33;;;;;;;;;;;16.00;99.90;;;;;;5031182;28;20372;-84
2022/10/23 12:15:10;;;;;;;;;;;16.10;99.90;;;;;;5051041;28;20253;-84
2022/10/23 12:17:39;;;;;;;;;;;16.10;99.90;;;;;;5050214;28;20344;-84
2022/10/23 12:20:08;;;;;;;;;;;16.10;99.90;;;;;;5050898;28;19919;-84
2022/10/23 12:22:40;;;;;;;;;;;16.10;99.90;;;;;;5049797;28;20657;-84
2022/10/23 12:25:24;;;;;;;;;;;16.00;99.90;;;;;;5050530;28;19992;-83
2022/10/23 12:28:04;;;;;;;;;;;16.00;99.90;;;;;;5053670;28;19913;-84
2022/10/23 12:30:39;;;;;;;;;;;16.00;99.90;;;;;;5050183;28;19913;-84
2022/10/23 12:33:08;;;;;;;;;;;16.00;99.90;;;;;;5046572;28;20043;-83
2022/10/23 12:35:52;;;;;;;;;;;16.10;99.90;;;;;;5049726;28;20352;-83
2022/10/23 12:38:19;;;;;;;;;;;16.10;99.90;;;;;;5050163;28;19908;-83
2022/10/23 12:40:55;;;;;;;;;;;16.10;99.90;;;;;;5033727;28;20019;-84
2022/10/23 12:43:24;;;;;;;;;;;16.30;99.90;;;;;;5032663;28;19924;-83
2022/10/23 12:45:49;;;;;;;;;;;16.40;99.90;;;;;;5051535;28;19909;-84
2022/10/23 12:48:20;;;;;;;;;;;16.50;99.90;;;;;;5052011;28;20345;-84
2022/10/23 12:50:55;;;;;;;;;;;16.50;99.90;;;;;;5043067;28;19913;-84
2022/10/23 12:53:22;;;;;;;;;;;16.50;99.90;;;;;;5030218;28;19913;-84
2022/10/23 12:55:47;;;;;;;;;;;16.50;99.90;;;;;;5051643;28;19964;-84
2022/10/23 12:58:24;;;;;;;;;;;16.50;99.90;;;;;;5036146;28;20360;-84
2022/10/23 13:00:50;;;;;;;;;;;16.50;99.90;;;;;;5055386;28;19959;-84
2022/10/23 13:03:16;;;;;;;;;;;16.60;99.90;;;;;;5055080;28;19986;-84
2022/10/23 13:05:42;;;;;;;;;;;16.60;99.90;;;;;;5037613;28;20360;-84
2022/10/23 13:08:08;;;;;;;;;;;16.50;99.90;;;;;;5060571;28;19927;-84
2022/10/23 13:10:34;;;;;;;;;;;16.50;99.90;;;;;;5038282;28;19924;-83
2022/10/23 13:13:05;;;;;;;;;;;16.50;99.90;;;;;;5053384;28;19913;-84
2022/10/23 13:15:41;;;;;;;;;;;16.60;99.90;;;;;;5061489;28;19920;-84
2022/10/23 13:18:07;;;;;;;;;;;16.70;99.90;;;;;;5043698;28;19999;-83
2022/10/23 13:20:34;;;;;;;;;;;16.80;99.90;;;;;;5041709;28;20292;-84
2022/10/23 13:23:17;;;;;;;;;;;17.00;99.90;;;;;;5057628;28;19935;-84
2022/10/23 13:26:02;;;;;;;;;;;17.10;99.90;;;;;;5055508;28;19959;-84
2022/10/23 13:28:28;;;;;;;;;;;17.30;99.90;;;;;;5051746;28;19923;-84
2022/10/23 13:31:17;;;;;;;;;;;17.30;99.90;;;;;;5054494;28;19913;-84
2022/10/23 13:33:44;;;;;;;;;;;17.30;99.90;;;;;;5043456;28;19919;-84
2022/10/23 13:36:13;;;;;;;;;;;17.30;99.90;;;;;;5053386;28;19960;-84
2022/10/23 13:38:40;;;;;;;;;;;17.30;99.90;;;;;;5055109;28;20281;-85
2022/10/23 13:41:10;;;;;;;;;;;17.20;99.90;;;;;;5037997;28;20304;-85
2022/10/23 13:43:36;;;;;;;;;;;17.20;99.90;;;;;;5055042;28;20020;-85
2022/10/23 13:46:01;;;;;;;;;;;17.10;99.90;;;;;;5037491;28;19960;-85
2022/10/23 13:48:27;;;;;;;;;;;17.10;99.90;;;;;;5035531;28;19917;-84
2022/10/23 13:50:53;;;;;;;;;;;17.00;99.90;;;;;;5053055;28;19955;-84
2022/10/23 13:53:19;;;;;;;;;;;17.10;99.90;;;;;;5055263;28;19917;-84
2022/10/23 13:55:46;;;;;;;;;;;17.10;99.90;;;;;;5020903;28;19920;-84
2022/10/23 13:58:12;;;;;;;;;;;17.10;99.90;;;;;;5036187;28;20007;-83
2022/10/23 14:00:37;;;;;;;;;;;17.20;99.90;;;;;;5055144;28;19945;-84
2022/10/23 14:03:03;;;;;;;;;;;17.20;99.90;;;;;;5033104;28;20288;-84
2022/10/23 14:05:29;;;;;;;;;;;17.20;99.90;;;;;;5053041;28;19917;-84
2022/10/23 14:07:55;;;;;;;;;;;17.20;99.90;;;;;;5036420;28;20375;-84
2022/10/23 14:10:20;;;;;;;;;;;17.20;99.90;;;;;;5036530;28;19928;-85
2022/10/23 14:12:46;;;;;;;;;;;17.10;99.90;;;;;;5056974;28;19919;-85
2022/10/23 14:15:12;;;;;;;;;;;17.00;99.90;;;;;;5037986;28;19923;-85
2022/10/23 14:17:37;;;;;;;;;;;17.00;99.90;;;;;;5055804;28;19939;-85
2022/10/23 14:20:03;;;;;;;;;;;16.90;99.90;;;;;;5038259;28;20015;-85
2022/10/23 14:22:29;;;;;;;;;;;16.90;99.90;;;;;;5053508;28;19963;-85
2022/10/23 14:24:55;;;;;;;;;;;16.90;99.90;;;;;;5034557;28;20090;-85
2022/10/23 14:27:21;;;;;;;;;;;16.90;99.90;;;;;;5035286;28;19921;-85
2022/10/23 14:29:47;;;;;;;;;;;16.80;99.90;;;;;;5020452;28;19916;-85
2022/10/23 14:32:12;;;;;;;;;;;16.80;99.90;;;;;;5055373;28;20020;-85
2022/10/23 14:34:40;;;;;;;;;;;16.80;99.90;;;;;;5047295;28;19912;-85